sensor_id;sensor_type;location;lat;lon;timestamp;pressure;altitude;pressure_sealevel;temperature;humidity
20630;BME280;17386;43.846;25.950;2024-03-22T00:01:46;101754.63;;;6.15;100.00
20630;BME280;17386;43.846;25.950;2024-03-22T00:04:12;101763.47;;;6.05;100.00
20630;BME280;17386;43.846;25.950;2024-03-22T00:06:39;101754.66;;;5.95;100.00
20630;BME280;17386;43.846;25.950;2024-03-22T00:09:04;101760.78;;;5.97;100.00
20630;BME280;17386;43.846;25.950;2024-03-22T00:11:30;101759.03;;;5.94;100.00
20630;BME280;17386;43.846;25.950;2024-03-22T00:13:55;101755.53;;;5.92;100.00
20630;BME280;17386;43.846;25.950;2024-03-22T00:16:21;101755.53;;;5.97;100.00
20630;BME280;17386;43.846;25.950;2024-03-22T00:18:47;101751.16;;;5.97;100.00
20630;BME280;17386;43.846;25.950;2024-03-22T00:21:12;101755.53;;;5.97;100.00
20630;BME280;17386;43.846;25.950;2024-03-22T00:23:38;101744.13;;;5.98;100.00
20630;BME280;17386;43.846;25.950;2024-03-22T00:26:03;101752.88;;;5.97;100.00
20630;BME280;17386;43.846;25.950;2024-03-22T00:28:29;101747.63;;;5.95;100.00
20630;BME280;17386;43.846;25.950;2024-03-22T00:30:54;101737.94;;;5.94;100.00
20630;BME280;17386;43.846;25.950;2024-03-22T00:33:20;101738.84;;;5.93;100.00
20630;BME280;17386;43.846;25.950;2024-03-22T00:35:45;101730.03;;;5.93;100.00
20630;BME280;17386;43.846;25.950;2024-03-22T00:38:11;101737.06;;;5.94;100.00
20630;BME280;17386;43.846;25.950;2024-03-22T00:40:36;101730.94;;;5.92;100.00
20630;BME280;17386;43.846;25.950;2024-03-22T00:43:02;101741.47;;;5.92;100.00
20630;BME280;17386;43.846;25.950;2024-03-22T00:45:27;101743.22;;;5.93;100.00
20630;BME280;17386;43.846;25.950;2024-03-22T00:47:53;101739.66;;;5.89;100.00
20630;BME280;17386;43.846;25.950;2024-03-22T00:50:18;101736.16;;;5.86;100.00
20630;BME280;17386;43.846;25.950;2024-03-22T00:52:44;101735.28;;;5.85;100.00
20630;BME280;17386;43.846;25.950;2024-03-22T00:55:09;101737.91;;;5.87;100.00
20630;BME280;17386;43.846;25.950;2024-03-22T00:57:35;101728.25;;;5.87;100.00
20630;BME280;17386;43.846;25.950;2024-03-22T01:00:00;101737.91;;;5.88;100.00
20630;BME280;17386;43.846;25.950;2024-03-22T01:02:26;101738.78;;;5.89;100.00
20630;BME280;17386;43.846;25.950;2024-03-22T01:04:51;101735.28;;;5.87;100.00
20630;BME280;17386;43.846;25.950;2024-03-22T01:07:16;101737.91;;;5.88;100.00
20630;BME280;17386;43.846;25.950;2024-03-22T01:09:42;101748.50;;;5.93;100.00
20630;BME280;17386;43.846;25.950;2024-03-22T01:12:09;101743.19;;;5.90;100.00
20630;BME280;17386;43.846;25.950;2024-03-22T01:14:35;101740.56;;;5.88;100.00
20630;BME280;17386;43.846;25.950;2024-03-22T01:17:01;101730.00;;;5.81;100.00
20630;BME280;17386;43.846;25.950;2024-03-22T01:19:26;101739.69;;;5.85;100.00
20630;BME280;17386;43.846;25.950;2024-03-22T01:21:52;101742.31;;;5.86;100.00
20630;BME280;17386;43.846;25.950;2024-03-22T01:24:17;101747.59;;;5.86;100.00
20630;BME280;17386;43.846;25.950;2024-03-22T01:26:43;101751.13;;;5.84;100.00
20630;BME280;17386;43.846;25.950;2024-03-22T01:29:08;101750.22;;;5.79;100.00
20630;BME280;17386;43.846;25.950;2024-03-22T01:31:34;101755.50;;;5.74;100.00
20630;BME280;17386;43.846;25.950;2024-03-22T01:33:59;101750.22;;;5.65;100.00
20630;BME280;17386;43.846;25.950;2024-03-22T01:36:25;101756.34;;;5.55;100.00
20630;BME280;17386;43.846;25.950;2024-03-22T01:38:50;101756.34;;;5.39;100.00
20630;BME280;17386;43.846;25.950;2024-03-22T01:41:16;101751.94;;;5.31;100.00
20630;BME280;17386;43.846;25.950;2024-03-22T01:43:43;101753.66;;;5.21;100.00
20630;BME280;17386;43.846;25.950;2024-03-22T01:46:08;101757.16;;;5.18;100.00
20630;BME280;17386;43.846;25.950;2024-03-22T01:48:34;101747.50;;;5.08;100.00
20630;BME280;17386;43.846;25.950;2024-03-22T01:51:01;101750.97;;;5.06;100.00
20630;BME280;17386;43.846;25.950;2024-03-22T01:53:27;101750.97;;;5.00;100.00
20630;BME280;17386;43.846;25.950;2024-03-22T01:55:52;101748.31;;;4.98;100.00
20630;BME280;17386;43.846;25.950;2024-03-22T01:58:18;101751.84;;;5.00;100.00
20630;BME280;17386;43.846;25.950;2024-03-22T02:00:43;101758.88;;;5.00;100.00
20630;BME280;17386;43.846;25.950;2024-03-22T02:03:09;101755.34;;;4.88;100.00
20630;BME280;17386;43.846;25.950;2024-03-22T02:05:35;101757.09;;;4.91;100.00
20630;BME280;17386;43.846;25.950;2024-03-22T02:08:00;101759.66;;;4.76;100.00
20630;BME280;17386;43.846;25.950;2024-03-22T02:10:26;101768.44;;;4.75;100.00
20630;BME280;17386;43.846;25.950;2024-03-22T02:12:52;101766.66;;;4.69;100.00
20630;BME280;17386;43.846;25.950;2024-03-22T02:15:17;101765.72;;;4.65;100.00
20630;BME280;17386;43.846;25.950;2024-03-22T02:17:43;101774.47;;;4.57;100.00
20630;BME280;17386;43.846;25.950;2024-03-22T02:20:08;101771.84;;;4.57;100.00
20630;BME280;17386;43.846;25.950;2024-03-22T02:22:35;101778.00;;;4.60;100.00
20630;BME280;17386;43.846;25.950;2024-03-22T02:25:01;101774.47;;;4.54;100.00
20630;BME280;17386;43.846;25.950;2024-03-22T02:27:26;101781.47;;;4.53;100.00
20630;BME280;17386;43.846;25.950;2024-03-22T02:29:52;101780.53;;;4.45;100.00
20630;BME280;17386;43.846;25.950;2024-03-22T02:32:17;101790.97;;;4.27;100.00
20630;BME280;17386;43.846;25.950;2024-03-22T02:34:43;101782.94;;;4.11;100.00
20630;BME280;17386;43.846;25.950;2024-03-22T02:37:08;101789.13;;;4.15;100.00
20630;BME280;17386;43.846;25.950;2024-03-22T02:39:34;101780.34;;;4.15;100.00
20630;BME280;17386;43.846;25.950;2024-03-22T02:41:59;101777.66;;;4.10;100.00
20630;BME280;17386;43.846;25.950;2024-03-22T02:44:25;101782.91;;;4.05;100.00
20630;BME280;17386;43.846;25.950;2024-03-22T02:46:50;101783.75;;;4.04;100.00
20630;BME280;17386;43.846;25.950;2024-03-22T02:49:16;101782.03;;;4.06;100.00
20630;BME280;17386;43.846;25.950;2024-03-22T02:51:41;101782.88;;;4.02;100.00
20630;BME280;17386;43.846;25.950;2024-03-22T02:54:07;101780.25;;;4.04;100.00
20630;BME280;17386;43.846;25.950;2024-03-22T02:56:32;101785.50;;;4.02;100.00
20630;BME280;17386;43.846;25.950;2024-03-22T02:58:58;101782.88;;;3.99;100.00
20630;BME280;17386;43.846;25.950;2024-03-22T03:01:23;101787.00;;;3.71;100.00
20630;BME280;17386;43.846;25.950;2024-03-22T03:03:49;101786.19;;;3.78;100.00
20630;BME280;17386;43.846;25.950;2024-03-22T03:06:14;101784.47;;;3.83;100.00
20630;BME280;17386;43.846;25.950;2024-03-22T03:08:41;101773.88;;;3.76;100.00
20630;BME280;17386;43.846;25.950;2024-03-22T03:11:07;101787.97;;;3.81;100.00
20630;BME280;17386;43.846;25.950;2024-03-22T03:13:32;101787.97;;;3.82;100.00
20630;BME280;17386;43.846;25.950;2024-03-22T03:15:58;101785.31;;;3.79;100.00
20630;BME280;17386;43.846;25.950;2024-03-22T03:18:23;101795.03;;;3.88;100.00
20630;BME280;17386;43.846;25.950;2024-03-22T03:20:49;101791.56;;;3.94;100.00
20630;BME280;17386;43.846;25.950;2024-03-22T03:23:15;101793.34;;;3.98;100.00
20630;BME280;17386;43.846;25.950;2024-03-22T03:25:40;101789.00;;;3.98;100.00
20630;BME280;17386;43.846;25.950;2024-03-22T03:28:06;101789.00;;;4.00;100.00
20630;BME280;17386;43.846;25.950;2024-03-22T03:30:33;101797.81;;;4.05;100.00
20630;BME280;17386;43.846;25.950;2024-03-22T03:32:58;101794.31;;;4.10;100.00
20630;BME280;17386;43.846;25.950;2024-03-22T03:35:24;101789.94;;;4.11;100.00
20630;BME280;17386;43.846;25.950;2024-03-22T03:37:51;101800.50;;;4.17;100.00
20630;BME280;17386;43.846;25.950;2024-03-22T03:40:16;101797.91;;;4.19;100.00
20630;BME280;17386;43.846;25.950;2024-03-22T03:42:42;101803.19;;;4.22;100.00
20630;BME280;17386;43.846;25.950;2024-03-22T03:45:07;101804.13;;;4.30;100.00
20630;BME280;17386;43.846;25.950;2024-03-22T03:47:33;101801.53;;;4.36;100.00
20630;BME280;17386;43.846;25.950;2024-03-22T03:49:58;101803.34;;;4.43;100.00
20630;BME280;17386;43.846;25.950;2024-03-22T03:52:24;101806.84;;;4.45;100.00
20630;BME280;17386;43.846;25.950;2024-03-22T03:54:49;101807.75;;;4.50;100.00
20630;BME280;17386;43.846;25.950;2024-03-22T03:57:15;101820.97;;;4.59;100.00
20630;BME280;17386;43.846;25.950;2024-03-22T03:59:40;101821.00;;;4.65;100.00
20630;BME280;17386;43.846;25.950;2024-03-22T04:02:06;101819.31;;;4.75;100.00
20630;BME280;17386;43.846;25.950;2024-03-22T04:04:31;101807.03;;;4.76;100.00
20630;BME280;17386;43.846;25.950;2024-03-22T04:06:57;101818.53;;;4.91;100.00
20630;BME280;17386;43.846;25.950;2024-03-22T04:09:23;101824.66;;;4.89;100.00
20630;BME280;17386;43.846;25.950;2024-03-22T04:11:48;101833.44;;;4.92;100.00
20630;BME280;17386;43.846;25.950;2024-03-22T04:14:14;101829.97;;;4.95;100.00
20630;BME280;17386;43.846;25.950;2024-03-22T04:16:39;101840.50;;;5.00;100.00
20630;BME280;17386;43.846;25.950;2024-03-22T04:19:05;101834.38;;;5.04;100.00
20630;BME280;17386;43.846;25.950;2024-03-22T04:21:30;101835.25;;;5.06;100.00
20630;BME280;17386;43.846;25.950;2024-03-22T04:23:56;101830.00;;;5.07;100.00
20630;BME280;17386;43.846;25.950;2024-03-22T04:26:21;101837.03;;;5.07;100.00
20630;BME280;17386;43.846;25.950;2024-03-22T04:28:48;101830.00;;;5.04;100.00
20630;BME280;17386;43.846;25.950;2024-03-22T04:31:14;101841.47;;;5.18;100.00
20630;BME280;17386;43.846;25.950;2024-03-22T04:33:41;101843.25;;;5.27;100.00
20630;BME280;17386;43.846;25.950;2024-03-22T04:36:06;101840.63;;;5.33;100.00
20630;BME280;17386;43.846;25.950;2024-03-22T04:38:34;101844.19;;;5.41;100.00
20630;BME280;17386;43.846;25.950;2024-03-22T04:41:00;101844.19;;;5.37;100.00
20630;BME280;17386;43.846;25.950;2024-03-22T04:43:26;101844.97;;;5.17;100.00
20630;BME280;17386;43.846;25.950;2024-03-22T04:45:52;101849.38;;;5.17;100.00
20630;BME280;17386;43.846;25.950;2024-03-22T04:48:19;101841.44;;;5.12;100.00
20630;BME280;17386;43.846;25.950;2024-03-22T04:50:45;101846.69;;;5.02;100.00
20630;BME280;17386;43.846;25.950;2024-03-22T04:53:11;101849.25;;;4.94;100.00
20630;BME280;17386;43.846;25.950;2024-03-22T04:55:36;101856.19;;;4.75;100.00
20630;BME280;17386;43.846;25.950;2024-03-22T04:58:03;101861.31;;;4.58;100.00
20630;BME280;17386;43.846;25.950;2024-03-22T05:00:28;101857.84;;;4.64;100.00
20630;BME280;17386;43.846;25.950;2024-03-22T05:02:54;101858.66;;;4.52;100.00
20630;BME280;17386;43.846;25.950;2024-03-22T05:05:20;101861.25;;;4.46;100.00
20630;BME280;17386;43.846;25.950;2024-03-22T05:07:46;101858.72;;;4.61;100.00
20630;BME280;17386;43.846;25.950;2024-03-22T05:10:12;101854.41;;;4.73;100.00
20630;BME280;17386;43.846;25.950;2024-03-22T05:12:37;101863.22;;;4.76;100.00
20630;BME280;17386;43.846;25.950;2024-03-22T05:15:03;101860.44;;;4.58;100.00
20630;BME280;17386;43.846;25.950;2024-03-22T05:17:29;101864.88;;;4.62;100.00
20630;BME280;17386;43.846;25.950;2024-03-22T05:19:59;101862.25;;;4.60;100.00
20630;BME280;17386;43.846;25.950;2024-03-22T05:22:25;101857.84;;;4.62;100.00
20630;BME280;17386;43.846;25.950;2024-03-22T05:24:50;101853.28;;;4.38;100.00
20630;BME280;17386;43.846;25.950;2024-03-22T05:27:17;101858.44;;;4.22;100.00
20630;BME280;17386;43.846;25.950;2024-03-22T05:29:42;101868.06;;;4.24;100.00
20630;BME280;17386;43.846;25.950;2024-03-22T05:32:08;101866.38;;;4.29;100.00
20630;BME280;17386;43.846;25.950;2024-03-22T05:34:34;101871.59;;;4.25;100.00
20630;BME280;17386;43.846;25.950;2024-03-22T05:37:01;101879.56;;;4.34;100.00
20630;BME280;17386;43.846;25.950;2024-03-22T05:39:26;101879.75;;;4.55;100.00
20630;BME280;17386;43.846;25.950;2024-03-22T05:41:52;101884.13;;;4.59;100.00
20630;BME280;17386;43.846;25.950;2024-03-22T05:44:18;101882.47;;;4.68;100.00
20630;BME280;17386;43.846;25.950;2024-03-22T05:46:43;101877.25;;;4.78;100.00
20630;BME280;17386;43.846;25.950;2024-03-22T05:49:09;101893.22;;;5.07;100.00
20630;BME280;17386;43.846;25.950;2024-03-22T05:51:34;101901.22;;;5.26;100.00
20630;BME280;17386;43.846;25.950;2024-03-22T05:54:00;101894.25;;;5.35;100.00
20630;BME280;17386;43.846;25.950;2024-03-22T05:56:25;101905.63;;;5.30;100.00
20630;BME280;17386;43.846;25.950;2024-03-22T05:58:50;101907.28;;;5.09;100.00
20630;BME280;17386;43.846;25.950;2024-03-22T06:01:19;101910.03;;;5.29;100.00
20630;BME280;17386;43.846;25.950;2024-03-22T06:03:44;101908.25;;;5.27;100.00
20630;BME280;17386;43.846;25.950;2024-03-22T06:06:10;101918.78;;;5.24;100.00
20630;BME280;17386;43.846;25.950;2024-03-22T06:08:35;101916.19;;;5.31;100.00
20630;BME280;17386;43.846;25.950;2024-03-22T06:11:07;101918.91;;;5.51;100.00
20630;BME280;17386;43.846;25.950;2024-03-22T06:13:32;101929.50;;;5.63;100.00
20630;BME280;17386;43.846;25.950;2024-03-22T06:15:58;101925.09;;;5.58;100.00
20630;BME280;17386;43.846;25.950;2024-03-22T06:18:23;101921.56;;;5.59;100.00
20630;BME280;17386;43.846;25.950;2024-03-22T06:20:49;101929.38;;;5.37;100.00
20630;BME280;17386;43.846;25.950;2024-03-22T06:23:14;101925.00;;;5.38;100.00
20630;BME280;17386;43.846;25.950;2024-03-22T06:25:40;101925.03;;;5.45;100.00
20630;BME280;17386;43.846;25.950;2024-03-22T06:28:05;101929.47;;;5.59;100.00
20630;BME280;17386;43.846;25.950;2024-03-22T06:30:31;101929.53;;;5.72;100.00
20630;BME280;17386;43.846;25.950;2024-03-22T06:32:56;101932.28;;;5.98;100.00
20630;BME280;17386;43.846;25.950;2024-03-22T06:35:22;101939.31;;;6.06;100.00
20630;BME280;17386;43.846;25.950;2024-03-22T06:37:47;101945.50;;;6.26;100.00
20630;BME280;17386;43.846;25.950;2024-03-22T06:40:14;101944.59;;;6.16;100.00
20630;BME280;17386;43.846;25.950;2024-03-22T06:42:39;101944.63;;;6.25;100.00
20630;BME280;17386;43.846;25.950;2024-03-22T06:45:05;101941.09;;;6.23;100.00
20630;BME280;17386;43.846;25.950;2024-03-22T06:47:31;101950.81;;;6.49;100.00
20630;BME280;17386;43.846;25.950;2024-03-22T06:49:56;101951.69;;;6.46;100.00
20630;BME280;17386;43.846;25.950;2024-03-22T06:52:23;101949.91;;;6.44;100.00
20630;BME280;17386;43.846;25.950;2024-03-22T06:54:48;101958.75;;;6.52;100.00
20630;BME280;17386;43.846;25.950;2024-03-22T06:57:14;101964.88;;;6.69;100.00
20630;BME280;17386;43.846;25.950;2024-03-22T06:59:39;101965.75;;;6.93;100.00
20630;BME280;17386;43.846;25.950;2024-03-22T07:02:08;101966.63;;;6.90;100.00
20630;BME280;17386;43.846;25.950;2024-03-22T07:04:35;101962.25;;;6.88;100.00
20630;BME280;17386;43.846;25.950;2024-03-22T07:07:00;101967.47;;;7.20;100.00
20630;BME280;17386;43.846;25.950;2024-03-22T07:09:26;101960.34;;;7.48;100.00
20630;BME280;17386;43.846;25.950;2024-03-22T07:11:53;101962.94;;;7.58;100.00
20630;BME280;17386;43.846;25.950;2024-03-22T07:14:19;101962.94;;;7.63;100.00
20630;BME280;17386;43.846;25.950;2024-03-22T07:16:44;101962.84;;;7.81;100.00
20630;BME280;17386;43.846;25.950;2024-03-22T07:19:11;101963.56;;;8.12;100.00
20630;BME280;17386;43.846;25.950;2024-03-22T07:21:36;101970.59;;;8.19;100.00
20630;BME280;17386;43.846;25.950;2024-03-22T07:24:02;101969.63;;;8.36;100.00
20630;BME280;17386;43.846;25.950;2024-03-22T07:26:28;101972.13;;;8.54;100.00
20630;BME280;17386;43.846;25.950;2024-03-22T07:28:54;101976.81;;;8.12;100.00
20630;BME280;17386;43.846;25.950;2024-03-22T07:31:19;101968.19;;;7.72;100.00
20630;BME280;17386;43.846;25.950;2024-03-22T07:33:45;101972.56;;;7.82;100.00
20630;BME280;17386;43.846;25.950;2024-03-22T07:36:10;101981.34;;;7.86;100.00
20630;BME280;17386;43.846;25.950;2024-03-22T07:38:36;101968.81;;;8.15;100.00
20630;BME280;17386;43.846;25.950;2024-03-22T07:41:03;101978.44;;;8.32;100.00
20630;BME280;17386;43.846;25.950;2024-03-22T07:43:29;101976.97;;;7.80;100.00
20630;BME280;17386;43.846;25.950;2024-03-22T07:45:55;101973.28;;;8.12;100.00
20630;BME280;17386;43.846;25.950;2024-03-22T07:48:20;101975.75;;;8.41;100.00
20630;BME280;17386;43.846;25.950;2024-03-22T07:50:46;101973.81;;;8.67;100.00
20630;BME280;17386;43.846;25.950;2024-03-22T07:53:11;101977.13;;;8.92;100.00
20630;BME280;17386;43.846;25.950;2024-03-22T07:55:39;101978.53;;;9.28;100.00
20630;BME280;17386;43.846;25.950;2024-03-22T07:58:04;101988.06;;;9.48;98.43
20630;BME280;17386;43.846;25.950;2024-03-22T08:00:31;101986.78;;;8.99;99.01
20630;BME280;17386;43.846;25.950;2024-03-22T08:02:56;101988.50;;;9.02;98.86
20630;BME280;17386;43.846;25.950;2024-03-22T08:05:22;101987.09;;;8.60;100.00
20630;BME280;17386;43.846;25.950;2024-03-22T08:07:47;101992.56;;;8.35;100.00
20630;BME280;17386;43.846;25.950;2024-03-22T08:10:13;101988.75;;;8.71;100.00
20630;BME280;17386;43.846;25.950;2024-03-22T08:12:41;101984.13;;;8.96;100.00
20630;BME280;17386;43.846;25.950;2024-03-22T08:15:07;101984.94;;;9.08;99.42
20630;BME280;17386;43.846;25.950;2024-03-22T08:17:32;101991.69;;;8.33;100.00
20630;BME280;17386;43.846;25.950;2024-03-22T08:19:58;101991.50;;;8.65;100.00
20630;BME280;17386;43.846;25.950;2024-03-22T08:22:23;101988.22;;;8.16;100.00
20630;BME280;17386;43.846;25.950;2024-03-22T08:24:49;101996.16;;;8.25;100.00
20630;BME280;17386;43.846;25.950;2024-03-22T08:27:14;101983.47;;;8.71;100.00
20630;BME280;17386;43.846;25.950;2024-03-22T08:29:40;101991.34;;;8.82;100.00
20630;BME280;17386;43.846;25.950;2024-03-22T08:32:06;101988.88;;;8.59;100.00
20630;BME280;17386;43.846;25.950;2024-03-22T08:34:31;101994.81;;;8.89;100.00
20630;BME280;17386;43.846;25.950;2024-03-22T08:37:00;101980.81;;;8.73;100.00
20630;BME280;17386;43.846;25.950;2024-03-22T08:39:26;101987.13;;;8.58;100.00
20630;BME280;17386;43.846;25.950;2024-03-22T08:41:54;101983.19;;;9.03;100.00
20630;BME280;17386;43.846;25.950;2024-03-22T08:44:20;101984.81;;;9.17;99.78
20630;BME280;17386;43.846;25.950;2024-03-22T08:46:45;101996.03;;;9.43;98.58
20630;BME280;17386;43.846;25.950;2024-03-22T08:49:11;101973.81;;;9.55;97.98
20630;BME280;17386;43.846;25.950;2024-03-22T08:51:37;101984.22;;;9.72;96.31
20630;BME280;17386;43.846;25.950;2024-03-22T08:54:03;101974.19;;;9.21;98.43
20630;BME280;17386;43.846;25.950;2024-03-22T08:56:29;101980.34;;;9.23;97.94
20630;BME280;17386;43.846;25.950;2024-03-22T08:58:55;101970.97;;;8.87;98.91
20630;BME280;17386;43.846;25.950;2024-03-22T09:01:21;101972.56;;;9.07;99.81
20630;BME280;17386;43.846;25.950;2024-03-22T09:03:47;101968.88;;;9.21;99.74
20630;BME280;17386;43.846;25.950;2024-03-22T09:06:14;101966.63;;;9.63;98.96
20630;BME280;17386;43.846;25.950;2024-03-22T09:08:40;101961.56;;;10.11;96.43
20630;BME280;17386;43.846;25.950;2024-03-22T09:11:05;101961.03;;;10.48;93.69
20630;BME280;17386;43.846;25.950;2024-03-22T09:13:31;101966.34;;;10.51;90.90
20630;BME280;17386;43.846;25.950;2024-03-22T09:16:00;101969.56;;;10.68;91.71
20630;BME280;17386;43.846;25.950;2024-03-22T09:18:26;101964.53;;;11.04;90.24
20630;BME280;17386;43.846;25.950;2024-03-22T09:20:55;101959.75;;;11.22;88.21
20630;BME280;17386;43.846;25.950;2024-03-22T09:23:21;101963.09;;;11.34;86.14
20630;BME280;17386;43.846;25.950;2024-03-22T09:25:47;101948.53;;;11.53;84.82
20630;BME280;17386;43.846;25.950;2024-03-22T09:28:13;101955.03;;;11.80;83.80
20630;BME280;17386;43.846;25.950;2024-03-22T09:30:39;101950.91;;;12.09;82.10
20630;BME280;17386;43.846;25.950;2024-03-22T09:33:08;101939.84;;;12.25;79.07
20630;BME280;17386;43.846;25.950;2024-03-22T09:35:36;101939.19;;;12.16;75.90
20630;BME280;17386;43.846;25.950;2024-03-22T09:38:02;101947.59;;;12.36;73.21
20630;BME280;17386;43.846;25.950;2024-03-22T09:40:28;101934.63;;;11.79;72.32
20630;BME280;17386;43.846;25.950;2024-03-22T09:42:59;101942.75;;;11.73;73.47
20630;BME280;17386;43.846;25.950;2024-03-22T09:45:27;101926.09;;;12.05;75.95
20630;BME280;17386;43.846;25.950;2024-03-22T09:47:53;101920.31;;;12.25;73.73
20630;BME280;17386;43.846;25.950;2024-03-22T09:50:21;101929.59;;;12.09;70.74
20630;BME280;17386;43.846;25.950;2024-03-22T09:52:47;101933.31;;;12.01;70.21
20630;BME280;17386;43.846;25.950;2024-03-22T09:55:13;101926.16;;;12.41;68.96
20630;BME280;17386;43.846;25.950;2024-03-22T09:57:39;101917.50;;;12.67;68.46
20630;BME280;17386;43.846;25.950;2024-03-22T10:00:07;101923.69;;;13.01;67.93
20630;BME280;17386;43.846;25.950;2024-03-22T10:02:33;101916.63;;;13.00;66.26
20630;BME280;17386;43.846;25.950;2024-03-22T10:04:59;101914.41;;;13.16;65.67
20630;BME280;17386;43.846;25.950;2024-03-22T10:07:25;101903.63;;;13.21;64.96
20630;BME280;17386;43.846;25.950;2024-03-22T10:09:58;101899.94;;;13.85;64.72
20630;BME280;17386;43.846;25.950;2024-03-22T10:12:23;101903.97;;;13.99;63.07
20630;BME280;17386;43.846;25.950;2024-03-22T10:14:52;101886.31;;;13.94;62.55
20630;BME280;17386;43.846;25.950;2024-03-22T10:17:18;101894.06;;;14.30;62.46
20630;BME280;17386;43.846;25.950;2024-03-22T10:19:43;101890.94;;;14.97;60.49
20630;BME280;17386;43.846;25.950;2024-03-22T10:22:09;101881.50;;;15.82;58.28
20630;BME280;17386;43.846;25.950;2024-03-22T10:24:34;101879.50;;;16.31;55.47
20630;BME280;17386;43.846;25.950;2024-03-22T10:27:00;101879.66;;;16.06;56.28
20630;BME280;17386;43.846;25.950;2024-03-22T10:29:26;101877.91;;;16.27;56.31
20630;BME280;17386;43.846;25.950;2024-03-22T10:31:53;101867.97;;;17.12;52.84
20630;BME280;17386;43.846;25.950;2024-03-22T10:34:21;101868.53;;;16.79;54.35
20630;BME280;17386;43.846;25.950;2024-03-22T10:36:46;101863.50;;;16.72;53.27
20630;BME280;17386;43.846;25.950;2024-03-22T10:39:15;101862.13;;;17.22;52.51
20630;BME280;17386;43.846;25.950;2024-03-22T10:41:43;101852.53;;;17.17;51.14
20630;BME280;17386;43.846;25.950;2024-03-22T10:44:08;101840.38;;;17.66;51.14
20630;BME280;17386;43.846;25.950;2024-03-22T10:46:34;101840.28;;;18.06;49.75
20630;BME280;17386;43.846;25.950;2024-03-22T10:49:02;101840.81;;;17.76;49.68
20630;BME280;17386;43.846;25.950;2024-03-22T10:51:30;101835.50;;;17.37;49.85
20630;BME280;17386;43.846;25.950;2024-03-22T10:53:58;101828.38;;;17.55;50.56
20630;BME280;17386;43.846;25.950;2024-03-22T10:56:25;101825.34;;;17.62;49.72
20630;BME280;17386;43.846;25.950;2024-03-22T10:58:51;101823.00;;;17.17;50.74
20630;BME280;17386;43.846;25.950;2024-03-22T11:01:27;101812.88;;;16.22;53.19
20630;BME280;17386;43.846;25.950;2024-03-22T11:04:06;101813.59;;;16.25;53.58
20630;BME280;17386;43.846;25.950;2024-03-22T11:06:37;101806.78;;;15.51;55.28
20630;BME280;17386;43.846;25.950;2024-03-22T11:09:03;101810.81;;;15.39;56.60
20630;BME280;17386;43.846;25.950;2024-03-22T11:11:31;101802.22;;;16.20;54.82
20630;BME280;17386;43.846;25.950;2024-03-22T11:14:02;101798.00;;;16.96;52.67
20630;BME280;17386;43.846;25.950;2024-03-22T11:16:28;101798.16;;;17.49;51.53
20630;BME280;17386;43.846;25.950;2024-03-22T11:18:55;101778.66;;;18.01;49.08
20630;BME280;17386;43.846;25.950;2024-03-22T11:21:20;101788.69;;;18.68;48.02
20630;BME280;17386;43.846;25.950;2024-03-22T11:23:46;101786.13;;;19.31;46.31
20630;BME280;17386;43.846;25.950;2024-03-22T11:26:12;101785.13;;;18.68;47.69
20630;BME280;17386;43.846;25.950;2024-03-22T11:28:39;101781.41;;;19.03;45.86
20630;BME280;17386;43.846;25.950;2024-03-22T11:31:04;101783.75;;;18.76;45.80
20630;BME280;17386;43.846;25.950;2024-03-22T11:33:30;101773.13;;;18.56;46.33
20630;BME280;17386;43.846;25.950;2024-03-22T11:35:58;101775.66;;;18.24;47.04
20630;BME280;17386;43.846;25.950;2024-03-22T11:38:26;101768.56;;;17.13;49.36
20630;BME280;17386;43.846;25.950;2024-03-22T11:40:52;101768.13;;;17.04;50.29
20630;BME280;17386;43.846;25.950;2024-03-22T11:43:20;101757.34;;;16.64;50.82
20630;BME280;17386;43.846;25.950;2024-03-22T11:45:46;101757.91;;;16.32;51.92
20630;BME280;17386;43.846;25.950;2024-03-22T11:48:11;101749.41;;;16.22;52.18
20630;BME280;17386;43.846;25.950;2024-03-22T11:50:37;101751.56;;;16.34;52.60
20630;BME280;17386;43.846;25.950;2024-03-22T11:53:05;101749.25;;;16.25;52.91
20630;BME280;17386;43.846;25.950;2024-03-22T11:55:30;101743.97;;;16.44;52.64
20630;BME280;17386;43.846;25.950;2024-03-22T11:57:59;101736.63;;;16.68;52.41
20630;BME280;17386;43.846;25.950;2024-03-22T12:00:24;101729.78;;;16.81;51.92
20630;BME280;17386;43.846;25.950;2024-03-22T12:02:52;101734.78;;;16.70;51.66
20630;BME280;17386;43.846;25.950;2024-03-22T12:05:18;101733.75;;;16.52;52.25
20630;BME280;17386;43.846;25.950;2024-03-22T12:07:44;101741.16;;;16.06;53.03
20630;BME280;17386;43.846;25.950;2024-03-22T12:10:10;101731.63;;;15.99;53.37
20630;BME280;17386;43.846;25.950;2024-03-22T12:12:35;101724.78;;;15.70;53.83
20630;BME280;17386;43.846;25.950;2024-03-22T12:15:02;101726.22;;;15.12;55.79
20630;BME280;17386;43.846;25.950;2024-03-22T12:17:28;101715.00;;;15.02;56.25
20630;BME280;17386;43.846;25.950;2024-03-22T12:19:55;101717.66;;;15.02;56.76
20630;BME280;17386;43.846;25.950;2024-03-22T12:22:22;101713.41;;;15.65;55.68
20630;BME280;17386;43.846;25.950;2024-03-22T12:24:47;101710.31;;;16.17;54.57
20630;BME280;17386;43.846;25.950;2024-03-22T12:27:13;101715.22;;;16.87;52.50
20630;BME280;17386;43.846;25.950;2024-03-22T12:29:38;101688.88;;;17.14;51.00
20630;BME280;17386;43.846;25.950;2024-03-22T12:32:04;101694.59;;;16.87;51.59
20630;BME280;17386;43.846;25.950;2024-03-22T12:34:31;101702.53;;;16.90;51.74